sensor_id;sensor_type;location;lat;lon;timestamp;P1;durP1;ratioP1;P2;durP2;ratioP2
49962;SDS011;36180;57.678;11.910;2023-12-04T00:01:11;12.55;;;8.35;;
49962;SDS011;36180;57.678;11.910;2023-12-04T00:03:38;14.73;;;8.82;;
49962;SDS011;36180;57.678;11.910;2023-12-04T00:06:07;15.00;;;9.60;;
49962;SDS011;36180;57.678;11.910;2023-12-04T00:08:35;13.57;;;9.32;;
49962;SDS011;36180;57.678;11.910;2023-12-04T00:11:03;15.50;;;9.35;;
49962;SDS011;36180;57.678;11.910;2023-12-04T00:13:30;14.52;;;9.13;;
49962;SDS011;36180;57.678;11.910;2023-12-04T00:15:57;14.00;;;8.05;;
49962;SDS011;36180;57.678;11.910;2023-12-04T00:18:24;12.27;;;7.78;;
49962;SDS011;36180;57.678;11.910;2023-12-04T00:20:51;16.10;;;9.20;;
49962;SDS011;36180;57.678;11.910;2023-12-04T00:23:19;15.32;;;8.23;;
49962;SDS011;36180;57.678;11.910;2023-12-04T00:25:46;12.63;;;7.63;;
49962;SDS011;36180;57.678;11.910;2023-12-04T00:28:13;15.05;;;7.90;;
49962;SDS011;36180;57.678;11.910;2023-12-04T00:30:40;11.68;;;7.30;;
49962;SDS011;36180;57.678;11.910;2023-12-04T00:33:07;10.82;;;6.72;;
49962;SDS011;36180;57.678;11.910;2023-12-04T00:35:34;9.10;;;5.80;;
49962;SDS011;36180;57.678;11.910;2023-12-04T00:38:01;8.43;;;5.65;;
49962;SDS011;36180;57.678;11.910;2023-12-04T00:40:29;8.25;;;5.22;;
49962;SDS011;36180;57.678;11.910;2023-12-04T00:42:56;8.70;;;5.97;;
49962;SDS011;36180;57.678;11.910;2023-12-04T00:45:24;10.63;;;5.95;;
49962;SDS011;36180;57.678;11.910;2023-12-04T00:47:51;8.55;;;5.03;;
49962;SDS011;36180;57.678;11.910;2023-12-04T00:50:18;9.10;;;5.22;;
49962;SDS011;36180;57.678;11.910;2023-12-04T00:52:44;8.75;;;5.43;;
49962;SDS011;36180;57.678;11.910;2023-12-04T00:55:11;8.20;;;5.22;;
49962;SDS011;36180;57.678;11.910;2023-12-04T00:57:40;8.80;;;5.32;;
49962;SDS011;36180;57.678;11.910;2023-12-04T01:00:07;7.30;;;4.82;;
49962;SDS011;36180;57.678;11.910;2023-12-04T01:02:35;7.72;;;4.93;;
49962;SDS011;36180;57.678;11.910;2023-12-04T01:05:02;8.50;;;5.22;;
49962;SDS011;36180;57.678;11.910;2023-12-04T01:07:30;7.32;;;5.05;;
49962;SDS011;36180;57.678;11.910;2023-12-04T01:09:57;7.55;;;5.10;;
49962;SDS011;36180;57.678;11.910;2023-12-04T01:12:23;8.02;;;4.82;;
49962;SDS011;36180;57.678;11.910;2023-12-04T01:14:53;7.97;;;5.28;;
49962;SDS011;36180;57.678;11.910;2023-12-04T01:17:20;7.32;;;5.00;;
49962;SDS011;36180;57.678;11.910;2023-12-04T01:19:46;8.27;;;5.10;;
49962;SDS011;36180;57.678;11.910;2023-12-04T01:22:16;9.43;;;5.38;;
49962;SDS011;36180;57.678;11.910;2023-12-04T01:25:09;7.03;;;4.82;;
49962;SDS011;36180;57.678;11.910;2023-12-04T01:27:36;8.88;;;5.38;;
49962;SDS011;36180;57.678;11.910;2023-12-04T01:30:05;8.07;;;5.00;;
49962;SDS011;36180;57.678;11.910;2023-12-04T01:32:34;8.80;;;4.72;;
49962;SDS011;36180;57.678;11.910;2023-12-04T01:35:01;7.53;;;4.93;;
49962;SDS011;36180;57.678;11.910;2023-12-04T01:37:28;6.45;;;4.75;;
49962;SDS011;36180;57.678;11.910;2023-12-04T01:39:55;6.35;;;4.93;;
49962;SDS011;36180;57.678;11.910;2023-12-04T01:42:22;7.68;;;4.93;;
49962;SDS011;36180;57.678;11.910;2023-12-04T01:44:49;6.85;;;4.55;;
49962;SDS011;36180;57.678;11.910;2023-12-04T01:47:17;6.45;;;4.30;;
49962;SDS011;36180;57.678;11.910;2023-12-04T01:49:44;8.43;;;5.10;;
49962;SDS011;36180;57.678;11.910;2023-12-04T01:52:11;7.10;;;4.70;;
49962;SDS011;36180;57.678;11.910;2023-12-04T01:54:38;7.43;;;4.80;;
49962;SDS011;36180;57.678;11.910;2023-12-04T01:57:05;8.30;;;5.13;;
49962;SDS011;36180;57.678;11.910;2023-12-04T01:59:32;8.32;;;5.15;;
49962;SDS011;36180;57.678;11.910;2023-12-04T02:01:59;10.05;;;5.75;;
49962;SDS011;36180;57.678;11.910;2023-12-04T02:04:29;9.60;;;5.35;;
49962;SDS011;36180;57.678;11.910;2023-12-04T02:06:57;9.02;;;5.22;;
49962;SDS011;36180;57.678;11.910;2023-12-04T02:09:24;7.65;;;4.50;;
49962;SDS011;36180;57.678;11.910;2023-12-04T02:11:52;6.38;;;4.35;;
49962;SDS011;36180;57.678;11.910;2023-12-04T02:14:19;6.57;;;4.38;;
49962;SDS011;36180;57.678;11.910;2023-12-04T02:16:46;6.43;;;4.28;;
49962;SDS011;36180;57.678;11.910;2023-12-04T02:19:13;5.03;;;3.85;;
49962;SDS011;36180;57.678;11.910;2023-12-04T02:21:41;7.28;;;4.32;;
49962;SDS011;36180;57.678;11.910;2023-12-04T02:24:10;6.47;;;4.53;;
49962;SDS011;36180;57.678;11.910;2023-12-04T02:26:39;6.50;;;4.18;;
49962;SDS011;36180;57.678;11.910;2023-12-04T02:29:10;6.45;;;4.22;;
49962;SDS011;36180;57.678;11.910;2023-12-04T02:31:39;7.90;;;4.07;;
49962;SDS011;36180;57.678;11.910;2023-12-04T02:34:07;6.28;;;4.13;;
49962;SDS011;36180;57.678;11.910;2023-12-04T02:36:34;8.15;;;4.32;;
49962;SDS011;36180;57.678;11.910;2023-12-04T02:39:02;7.50;;;4.28;;
49962;SDS011;36180;57.678;11.910;2023-12-04T02:41:30;6.97;;;3.88;;
49962;SDS011;36180;57.678;11.910;2023-12-04T02:43:57;5.90;;;3.85;;
49962;SDS011;36180;57.678;11.910;2023-12-04T02:46:24;6.68;;;3.85;;
49962;SDS011;36180;57.678;11.910;2023-12-04T02:48:51;6.10;;;3.78;;
49962;SDS011;36180;57.678;11.910;2023-12-04T02:51:18;4.97;;;3.40;;
49962;SDS011;36180;57.678;11.910;2023-12-04T02:53:45;5.47;;;3.88;;
49962;SDS011;36180;57.678;11.910;2023-12-04T02:56:12;6.00;;;4.10;;
49962;SDS011;36180;57.678;11.910;2023-12-04T02:58:40;6.07;;;3.85;;
49962;SDS011;36180;57.678;11.910;2023-12-04T03:01:07;5.60;;;3.72;;
49962;SDS011;36180;57.678;11.910;2023-12-04T03:03:34;5.32;;;3.35;;
49962;SDS011;36180;57.678;11.910;2023-12-04T03:06:01;4.10;;;3.47;;
49962;SDS011;36180;57.678;11.910;2023-12-04T03:08:28;4.50;;;3.35;;
49962;SDS011;36180;57.678;11.910;2023-12-04T03:10:55;5.28;;;3.50;;
49962;SDS011;36180;57.678;11.910;2023-12-04T03:13:21;6.88;;;3.90;;
49962;SDS011;36180;57.678;11.910;2023-12-04T03:15:50;8.60;;;3.55;;
49962;SDS011;36180;57.678;11.910;2023-12-04T03:18:17;5.82;;;3.88;;
49962;SDS011;36180;57.678;11.910;2023-12-04T03:20:44;6.80;;;4.50;;
49962;SDS011;36180;57.678;11.910;2023-12-04T03:23:11;6.70;;;4.30;;
49962;SDS011;36180;57.678;11.910;2023-12-04T03:25:38;7.22;;;4.43;;
49962;SDS011;36180;57.678;11.910;2023-12-04T03:28:04;7.82;;;4.60;;
49962;SDS011;36180;57.678;11.910;2023-12-04T03:30:31;7.80;;;4.40;;
49962;SDS011;36180;57.678;11.910;2023-12-04T03:33:00;7.25;;;4.70;;
49962;SDS011;36180;57.678;11.910;2023-12-04T03:35:27;7.55;;;4.72;;
49962;SDS011;36180;57.678;11.910;2023-12-04T03:37:54;7.07;;;4.57;;
49962;SDS011;36180;57.678;11.910;2023-12-04T03:40:21;6.45;;;4.57;;
49962;SDS011;36180;57.678;11.910;2023-12-04T03:42:48;5.95;;;4.30;;
49962;SDS011;36180;57.678;11.910;2023-12-04T03:45:14;6.13;;;4.30;;
49962;SDS011;36180;57.678;11.910;2023-12-04T03:47:41;6.60;;;4.40;;
49962;SDS011;36180;57.678;11.910;2023-12-04T03:50:10;6.05;;;3.92;;
49962;SDS011;36180;57.678;11.910;2023-12-04T03:52:37;6.65;;;4.15;;
49962;SDS011;36180;57.678;11.910;2023-12-04T03:55:04;7.13;;;4.18;;
49962;SDS011;36180;57.678;11.910;2023-12-04T03:57:32;5.25;;;3.92;;
49962;SDS011;36180;57.678;11.910;2023-12-04T03:59:59;6.00;;;3.90;;
49962;SDS011;36180;57.678;11.910;2023-12-04T04:02:25;5.65;;;3.92;;
49962;SDS011;36180;57.678;11.910;2023-12-04T04:04:53;6.05;;;3.90;;
49962;SDS011;36180;57.678;11.910;2023-12-04T04:07:21;7.53;;;4.13;;
49962;SDS011;36180;57.678;11.910;2023-12-04T04:09:48;5.75;;;4.00;;
49962;SDS011;36180;57.678;11.910;2023-12-04T04:12:15;5.78;;;4.15;;
49962;SDS011;36180;57.678;11.910;2023-12-04T04:14:42;8.45;;;4.15;;
49962;SDS011;36180;57.678;11.910;2023-12-04T04:17:09;6.25;;;3.95;;
49962;SDS011;36180;57.678;11.910;2023-12-04T04:19:36;5.53;;;3.83;;
49962;SDS011;36180;57.678;11.910;2023-12-04T04:22:03;6.50;;;4.07;;
49962;SDS011;36180;57.678;11.910;2023-12-04T04:24:31;8.02;;;4.75;;
49962;SDS011;36180;57.678;11.910;2023-12-04T04:26:58;6.70;;;4.30;;
49962;SDS011;36180;57.678;11.910;2023-12-04T04:29:25;4.85;;;3.67;;
49962;SDS011;36180;57.678;11.910;2023-12-04T04:31:52;5.60;;;3.90;;
49962;SDS011;36180;57.678;11.910;2023-12-04T04:34:19;6.57;;;3.67;;
49962;SDS011;36180;57.678;11.910;2023-12-04T04:36:47;5.95;;;3.80;;
49962;SDS011;36180;57.678;11.910;2023-12-04T04:39:14;6.05;;;4.35;;
49962;SDS011;36180;57.678;11.910;2023-12-04T04:41:42;5.90;;;3.63;;
49962;SDS011;36180;57.678;11.910;2023-12-04T04:44:10;9.00;;;4.07;;
49962;SDS011;36180;57.678;11.910;2023-12-04T04:46:37;5.13;;;3.75;;
49962;SDS011;36180;57.678;11.910;2023-12-04T04:49:04;6.93;;;4.13;;
49962;SDS011;36180;57.678;11.910;2023-12-04T04:51:32;6.47;;;3.80;;
49962;SDS011;36180;57.678;11.910;2023-12-04T04:53:59;8.27;;;4.22;;
49962;SDS011;36180;57.678;11.910;2023-12-04T04:56:26;6.68;;;4.22;;
49962;SDS011;36180;57.678;11.910;2023-12-04T04:58:55;4.72;;;3.25;;
49962;SDS011;36180;57.678;11.910;2023-12-04T05:01:22;4.95;;;3.47;;
49962;SDS011;36180;57.678;11.910;2023-12-04T05:03:49;5.28;;;3.97;;
49962;SDS011;36180;57.678;11.910;2023-12-04T05:06:16;5.32;;;3.25;;
49962;SDS011;36180;57.678;11.910;2023-12-04T05:08:43;5.68;;;3.55;;
49962;SDS011;36180;57.678;11.910;2023-12-04T05:11:10;5.78;;;3.78;;
49962;SDS011;36180;57.678;11.910;2023-12-04T05:13:37;7.97;;;4.25;;
49962;SDS011;36180;57.678;11.910;2023-12-04T05:16:06;5.78;;;3.83;;
49962;SDS011;36180;57.678;11.910;2023-12-04T05:18:33;7.10;;;3.50;;
49962;SDS011;36180;57.678;11.910;2023-12-04T05:21:00;7.13;;;4.03;;
49962;SDS011;36180;57.678;11.910;2023-12-04T05:23:28;7.70;;;3.80;;
49962;SDS011;36180;57.678;11.910;2023-12-04T05:25:54;7.05;;;4.30;;
49962;SDS011;36180;57.678;11.910;2023-12-04T05:28:21;6.82;;;4.00;;
49962;SDS011;36180;57.678;11.910;2023-12-04T05:30:48;8.25;;;4.30;;
49962;SDS011;36180;57.678;11.910;2023-12-04T05:33:17;6.43;;;3.92;;
49962;SDS011;36180;57.678;11.910;2023-12-04T05:35:44;8.55;;;4.25;;
49962;SDS011;36180;57.678;11.910;2023-12-04T05:38:11;5.97;;;4.28;;
49962;SDS011;36180;57.678;11.910;2023-12-04T05:40:38;6.95;;;4.68;;
49962;SDS011;36180;57.678;11.910;2023-12-04T05:43:04;6.45;;;4.20;;
49962;SDS011;36180;57.678;11.910;2023-12-04T05:45:31;6.97;;;4.15;;
49962;SDS011;36180;57.678;11.910;2023-12-04T05:47:58;6.95;;;4.00;;
49962;SDS011;36180;57.678;11.910;2023-12-04T05:50:27;6.63;;;4.20;;
49962;SDS011;36180;57.678;11.910;2023-12-04T05:52:54;8.20;;;4.60;;
49962;SDS011;36180;57.678;11.910;2023-12-04T05:55:20;9.10;;;4.90;;
49962;SDS011;36180;57.678;11.910;2023-12-04T05:57:47;8.23;;;4.60;;
49962;SDS011;36180;57.678;11.910;2023-12-04T06:00:14;7.47;;;4.18;;
49962;SDS011;36180;57.678;11.910;2023-12-04T06:02:42;6.78;;;4.10;;
49962;SDS011;36180;57.678;11.910;2023-12-04T06:05:09;7.40;;;4.28;;
49962;SDS011;36180;57.678;11.910;2023-12-04T06:07:37;7.28;;;4.47;;
49962;SDS011;36180;57.678;11.910;2023-12-04T06:10:04;5.93;;;3.92;;
49962;SDS011;36180;57.678;11.910;2023-12-04T06:12:33;8.55;;;5.10;;
49962;SDS011;36180;57.678;11.910;2023-12-04T06:15:00;8.20;;;4.15;;
49962;SDS011;36180;57.678;11.910;2023-12-04T06:17:27;6.78;;;4.28;;
49962;SDS011;36180;57.678;11.910;2023-12-04T06:19:54;6.35;;;3.97;;
49962;SDS011;36180;57.678;11.910;2023-12-04T06:22:21;7.72;;;4.53;;
49962;SDS011;36180;57.678;11.910;2023-12-04T06:24:50;9.30;;;4.95;;
49962;SDS011;36180;57.678;11.910;2023-12-04T06:27:18;7.55;;;4.45;;
49962;SDS011;36180;57.678;11.910;2023-12-04T06:29:46;7.60;;;4.55;;
49962;SDS011;36180;57.678;11.910;2023-12-04T06:32:14;7.82;;;5.10;;
49962;SDS011;36180;57.678;11.910;2023-12-04T06:34:41;5.88;;;4.30;;
49962;SDS011;36180;57.678;11.910;2023-12-04T06:37:09;10.18;;;6.00;;
49962;SDS011;36180;57.678;11.910;2023-12-04T06:39:38;19.95;;;11.10;;
49962;SDS011;36180;57.678;11.910;2023-12-04T06:42:08;26.15;;;11.07;;
49962;SDS011;36180;57.678;11.910;2023-12-04T06:44:36;9.30;;;6.00;;
49962;SDS011;36180;57.678;11.910;2023-12-04T06:47:04;7.65;;;4.95;;
49962;SDS011;36180;57.678;11.910;2023-12-04T06:49:32;8.88;;;5.15;;
49962;SDS011;36180;57.678;11.910;2023-12-04T06:51:59;7.35;;;4.90;;
49962;SDS011;36180;57.678;11.910;2023-12-04T06:54:26;9.82;;;5.22;;
49962;SDS011;36180;57.678;11.910;2023-12-04T06:56:54;7.93;;;5.07;;
49962;SDS011;36180;57.678;11.910;2023-12-04T06:59:22;8.13;;;5.18;;
49962;SDS011;36180;57.678;11.910;2023-12-04T07:01:49;9.25;;;4.95;;
49962;SDS011;36180;57.678;11.910;2023-12-04T07:04:16;7.82;;;5.20;;
49962;SDS011;36180;57.678;11.910;2023-12-04T07:06:46;8.65;;;4.82;;
49962;SDS011;36180;57.678;11.910;2023-12-04T07:09:14;7.85;;;4.80;;
49962;SDS011;36180;57.678;11.910;2023-12-04T07:11:42;6.15;;;4.18;;
49962;SDS011;36180;57.678;11.910;2023-12-04T07:14:09;8.80;;;4.40;;
49962;SDS011;36180;57.678;11.910;2023-12-04T07:16:41;7.10;;;4.32;;
49962;SDS011;36180;57.678;11.910;2023-12-04T07:19:08;6.53;;;4.18;;
49962;SDS011;36180;57.678;11.910;2023-12-04T07:21:35;7.47;;;4.65;;
49962;SDS011;36180;57.678;11.910;2023-12-04T07:24:02;7.43;;;5.00;;
49962;SDS011;36180;57.678;11.910;2023-12-04T07:26:30;9.30;;;5.90;;
49962;SDS011;36180;57.678;11.910;2023-12-04T07:28:58;5.78;;;4.20;;
49962;SDS011;36180;57.678;11.910;2023-12-04T07:31:25;5.47;;;3.90;;
49962;SDS011;36180;57.678;11.910;2023-12-04T07:33:53;7.65;;;4.35;;
49962;SDS011;36180;57.678;11.910;2023-12-04T07:36:20;7.05;;;4.50;;
49962;SDS011;36180;57.678;11.910;2023-12-04T07:38:49;6.85;;;4.20;;
49962;SDS011;36180;57.678;11.910;2023-12-04T07:41:17;6.43;;;4.50;;
49962;SDS011;36180;57.678;11.910;2023-12-04T07:43:44;9.15;;;5.07;;
49962;SDS011;36180;57.678;11.910;2023-12-04T07:46:11;7.32;;;4.82;;
49962;SDS011;36180;57.678;11.910;2023-12-04T07:48:39;6.38;;;4.47;;
49962;SDS011;36180;57.678;11.910;2023-12-04T07:51:07;6.28;;;4.25;;
49962;SDS011;36180;57.678;11.910;2023-12-04T07:53:35;6.45;;;4.60;;
49962;SDS011;36180;57.678;11.910;2023-12-04T07:56:02;8.20;;;4.75;;
49962;SDS011;36180;57.678;11.910;2023-12-04T07:58:30;7.38;;;4.40;;
49962;SDS011;36180;57.678;11.910;2023-12-04T08:00:57;6.53;;;4.15;;
49962;SDS011;36180;57.678;11.910;2023-12-04T08:03:24;6.43;;;3.72;;
49962;SDS011;36180;57.678;11.910;2023-12-04T08:05:51;7.15;;;4.35;;
49962;SDS011;36180;57.678;11.910;2023-12-04T08:08:20;13.30;;;6.35;;
49962;SDS011;36180;57.678;11.910;2023-12-04T08:10:47;12.55;;;6.28;;
49962;SDS011;36180;57.678;11.910;2023-12-04T08:13:14;13.30;;;6.70;;
49962;SDS011;36180;57.678;11.910;2023-12-04T08:15:41;37.22;;;11.15;;
49962;SDS011;36180;57.678;11.910;2023-12-04T08:18:08;14.60;;;6.80;;
49962;SDS011;36180;57.678;11.910;2023-12-04T08:20:35;10.65;;;5.63;;
49962;SDS011;36180;57.678;11.910;2023-12-04T08:23:02;7.18;;;4.13;;
49962;SDS011;36180;57.678;11.910;2023-12-04T08:25:30;8.35;;;4.95;;
49962;SDS011;36180;57.678;11.910;2023-12-04T08:27:58;7.38;;;4.68;;
49962;SDS011;36180;57.678;11.910;2023-12-04T08:30:25;7.82;;;5.07;;
49962;SDS011;36180;57.678;11.910;2023-12-04T08:32:53;7.07;;;4.45;;
49962;SDS011;36180;57.678;11.910;2023-12-04T08:35:20;7.47;;;4.30;;
49962;SDS011;36180;57.678;11.910;2023-12-04T08:37:47;12.07;;;5.28;;
49962;SDS011;36180;57.678;11.910;2023-12-04T08:40:14;8.98;;;4.40;;
49962;SDS011;36180;57.678;11.910;2023-12-04T08:42:42;8.48;;;4.88;;
49962;SDS011;36180;57.678;11.910;2023-12-04T08:45:10;7.10;;;4.05;;
49962;SDS011;36180;57.678;11.910;2023-12-04T08:47:37;5.95;;;4.00;;
49962;SDS011;36180;57.678;11.910;2023-12-04T08:50:04;6.15;;;3.78;;
49962;SDS011;36180;57.678;11.910;2023-12-04T08:52:32;6.63;;;4.22;;
49962;SDS011;36180;57.678;11.910;2023-12-04T08:54:59;7.07;;;4.30;;
49962;SDS011;36180;57.678;11.910;2023-12-04T08:57:26;5.97;;;3.42;;
49962;SDS011;36180;57.678;11.910;2023-12-04T08:59:55;7.28;;;4.38;;
49962;SDS011;36180;57.678;11.910;2023-12-04T09:02:22;6.45;;;4.43;;
49962;SDS011;36180;57.678;11.910;2023-12-04T09:04:48;6.53;;;3.95;;
49962;SDS011;36180;57.678;11.910;2023-12-04T09:07:15;5.75;;;3.80;;
49962;SDS011;36180;57.678;11.910;2023-12-04T09:09:42;6.90;;;3.78;;
49962;SDS011;36180;57.678;11.910;2023-12-04T09:12:10;6.60;;;3.85;;
49962;SDS011;36180;57.678;11.910;2023-12-04T09:14:37;7.25;;;4.38;;
49962;SDS011;36180;57.678;11.910;2023-12-04T09:17:05;6.65;;;4.05;;
49962;SDS011;36180;57.678;11.910;2023-12-04T09:19:32;8.20;;;4.68;;
49962;SDS011;36180;57.678;11.910;2023-12-04T09:21:59;8.10;;;4.88;;
49962;SDS011;36180;57.678;11.910;2023-12-04T09:24:26;11.70;;;5.00;;
49962;SDS011;36180;57.678;11.910;2023-12-04T09:26:54;12.48;;;5.70;;
49962;SDS011;36180;57.678;11.910;2023-12-04T09:29:21;9.30;;;4.93;;
49962;SDS011;36180;57.678;11.910;2023-12-04T09:31:49;9.98;;;5.00;;
49962;SDS011;36180;57.678;11.910;2023-12-04T09:34:18;8.23;;;4.75;;
49962;SDS011;36180;57.678;11.910;2023-12-04T09:36:47;11.63;;;5.00;;
49962;SDS011;36180;57.678;11.910;2023-12-04T09:39:14;7.32;;;4.70;;
49962;SDS011;36180;57.678;11.910;2023-12-04T09:41:42;6.57;;;4.60;;
49962;SDS011;36180;57.678;11.910;2023-12-04T09:44:10;7.30;;;4.18;;
49962;SDS011;36180;57.678;11.910;2023-12-04T09:46:37;14.55;;;4.05;;
49962;SDS011;36180;57.678;11.910;2023-12-04T09:49:04;8.05;;;4.50;;
49962;SDS011;36180;57.678;11.910;2023-12-04T09:51:34;9.30;;;5.75;;
49962;SDS011;36180;57.678;11.910;2023-12-04T09:54:02;11.68;;;6.38;;
49962;SDS011;36180;57.678;11.910;2023-12-04T09:56:29;9.98;;;6.10;;
49962;SDS011;36180;57.678;11.910;2023-12-04T09:58:57;11.65;;;6.38;;
49962;SDS011;36180;57.678;11.910;2023-12-04T10:01:25;14.02;;;7.53;;
49962;SDS011;36180;57.678;11.910;2023-12-04T10:03:52;13.07;;;7.03;;
49962;SDS011;36180;57.678;11.910;2023-12-04T10:06:22;12.93;;;6.28;;
49962;SDS011;36180;57.678;11.910;2023-12-04T10:08:52;11.30;;;5.88;;
49962;SDS011;36180;57.678;11.910;2023-12-04T10:11:20;11.18;;;5.57;;
49962;SDS011;36180;57.678;11.910;2023-12-04T10:13:47;9.60;;;5.13;;
49962;SDS011;36180;57.678;11.910;2023-12-04T10:16:14;9.82;;;5.55;;
49962;SDS011;36180;57.678;11.910;2023-12-04T10:18:41;11.13;;;5.63;;
49962;SDS011;36180;57.678;11.910;2023-12-04T10:21:08;7.22;;;4.45;;
49962;SDS011;36180;57.678;11.910;2023-12-04T10:23:36;8.90;;;4.32;;
49962;SDS011;36180;57.678;11.910;2023-12-04T10:26:05;9.15;;;4.35;;
49962;SDS011;36180;57.678;11.910;2023-12-04T10:28:33;6.38;;;4.32;;
49962;SDS011;36180;57.678;11.910;2023-12-04T10:31:00;6.45;;;4.68;;
49962;SDS011;36180;57.678;11.910;2023-12-04T10:33:28;9.27;;;5.57;;
49962;SDS011;36180;57.678;11.910;2023-12-04T10:35:56;11.50;;;5.43;;
49962;SDS011;36180;57.678;11.910;2023-12-04T10:38:22;12.15;;;5.82;;
49962;SDS011;36180;57.678;11.910;2023-12-04T10:40:52;8.45;;;5.07;;
49962;SDS011;36180;57.678;11.910;2023-12-04T10:43:21;9.13;;;4.90;;
49962;SDS011;36180;57.678;11.910;2023-12-04T10:45:49;5.45;;;3.97;;
49962;SDS011;36180;57.678;11.910;2023-12-04T10:48:17;7.10;;;4.30;;
49962;SDS011;36180;57.678;11.910;2023-12-04T10:50:45;8.38;;;4.15;;
49962;SDS011;36180;57.678;11.910;2023-12-04T10:53:13;8.40;;;3.95;;
49962;SDS011;36180;57.678;11.910;2023-12-04T10:55:41;4.78;;;3.15;;
49962;SDS011;36180;57.678;11.910;2023-12-04T10:58:10;7.90;;;4.20;;
49962;SDS011;36180;57.678;11.910;2023-12-04T11:00:40;6.20;;;4.05;;
49962;SDS011;36180;57.678;11.910;2023-12-04T11:03:09;5.68;;;3.78;;
49962;SDS011;36180;57.678;11.910;2023-12-04T11:05:39;5.82;;;4.28;;
49962;SDS011;36180;57.678;11.910;2023-12-04T11:08:08;9.63;;;5.07;;
49962;SDS011;36180;57.678;11.910;2023-12-04T11:10:38;10.35;;;5.07;;
49962;SDS011;36180;57.678;11.910;2023-12-04T11:13:10;9.15;;;4.70;;
49962;SDS011;36180;57.678;11.910;2023-12-04T11:15:43;6.53;;;4.40;;
49962;SDS011;36180;57.678;11.910;2023-12-04T11:18:15;8.27;;;4.82;;
49962;SDS011;36180;57.678;11.910;2023-12-04T11:20:44;12.95;;;5.03;;
49962;SDS011;36180;57.678;11.910;2023-12-04T11:23:14;7.10;;;4.47;;
49962;SDS011;36180;57.678;11.910;2023-12-04T11:25:42;10.60;;;5.45;;
49962;SDS011;36180;57.678;11.910;2023-12-04T11:28:09;10.18;;;5.20;;
49962;SDS011;36180;57.678;11.910;2023-12-04T11:30:37;10.15;;;5.35;;
49962;SDS011;36180;57.678;11.910;2023-12-04T11:33:05;10.98;;;5.90;;
49962;SDS011;36180;57.678;11.910;2023-12-04T11:35:33;9.45;;;5.25;;
49962;SDS011;36180;57.678;11.910;2023-12-04T11:38:00;9.82;;;5.50;;
49962;SDS011;36180;57.678;11.910;2023-12-04T11:40:27;12.52;;;5.40;;
49962;SDS011;36180;57.678;11.910;2023-12-04T11:42:54;8.88;;;5.70;;
49962;SDS011;36180;57.678;11.910;2023-12-04T11:45:21;12.02;;;5.97;;
49962;SDS011;36180;57.678;11.910;2023-12-04T11:47:48;13.98;;;6.15;;
49962;SDS011;36180;57.678;11.910;2023-12-04T11:50:17;14.65;;;6.60;;
49962;SDS011;36180;57.678;11.910;2023-12-04T11:52:45;14.18;;;6.00;;
49962;SDS011;36180;57.678;11.910;2023-12-04T11:55:12;15.38;;;6.18;;
49962;SDS011;36180;57.678;11.910;2023-12-04T11:57:42;13.68;;;6.15;;
49962;SDS011;36180;57.678;11.910;2023-12-04T12:00:21;12.20;;;6.53;;
49962;SDS011;36180;57.678;11.910;2023-12-04T12:05:33;12.30;;;6.32;;
49962;SDS011;36180;57.678;11.910;2023-12-04T12:08:00;11.57;;;6.35;;
49962;SDS011;36180;57.678;11.910;2023-12-04T12:10:28;10.93;;;5.97;;
49962;SDS011;36180;57.678;11.910;2023-12-04T12:12:55;14.15;;;7.20;;
49962;SDS011;36180;57.678;11.910;2023-12-04T12:15:22;15.52;;;6.72;;
49962;SDS011;36180;57.678;11.910;2023-12-04T12:17:50;26.98;;;6.78;;
49962;SDS011;36180;57.678;11.910;2023-12-04T12:20:17;29.55;;;9.20;;
49962;SDS011;36180;57.678;11.910;2023-12-04T12:22:47;14.68;;;6.82;;
49962;SDS011;36180;57.678;11.910;2023-12-04T12:25:15;25.83;;;7.30;;
49962;SDS011;36180;57.678;11.910;2023-12-04T12:27:42;16.90;;;7.25;;
49962;SDS011;36180;57.678;11.910;2023-12-04T12:30:09;17.17;;;7.63;;
49962;SDS011;36180;57.678;11.910;2023-12-04T12:32:37;15.07;;;7.53;;
49962;SDS011;36180;57.678;11.910;2023-12-04T12:35:04;19.65;;;7.32;;
49962;SDS011;36180;57.678;11.910;2023-12-04T12:37:33;38.08;;;8.73;;
49962;SDS011;36180;57.678;11.910;2023-12-04T12:40:17;19.00;;;7.53;;
49962;SDS011;36180;57.678;11.910;2023-12-04T12:42:44;16.77;;;6.95;;
49962;SDS011;36180;57.678;11.910;2023-12-04T12:45:11;14.75;;;7.15;;
49962;SDS011;36180;57.678;11.910;2023-12-04T12:47:40;14.45;;;7.22;;
49962;SDS011;36180;57.678;11.910;2023-12-04T12:50:11;18.05;;;7.57;;
49962;SDS011;36180;57.678;11.910;2023-12-04T12:52:38;17.58;;;8.38;;
49962;SDS011;36180;57.678;11.910;2023-12-04T12:55:05;15.88;;;7.63;;
49962;SDS011;36180;57.678;11.910;2023-12-04T12:57:34;15.63;;;7.95;;
49962;SDS011;36180;57.678;11.910;2023-12-04T13:00:01;22.02;;;9.00;;
49962;SDS011;36180;57.678;11.910;2023-12-04T13:02:33;16.77;;;7.80;;
49962;SDS011;36180;57.678;11.910;2023-12-04T13:05:01;17.75;;;8.55;;
49962;SDS011;36180;57.678;11.910;2023-12-04T13:07:29;17.17;;;9.40;;
49962;SDS011;36180;57.678;11.910;2023-12-04T13:09:56;20.52;;;9.60;;
49962;SDS011;36180;57.678;11.910;2023-12-04T13:12:23;19.55;;;9.65;;
49962;SDS011;36180;57.678;11.910;2023-12-04T13:14:51;17.30;;;9.18;;
49962;SDS011;36180;57.678;11.910;2023-12-04T13:17:18;19.90;;;9.50;;
49962;SDS011;36180;57.678;11.910;2023-12-04T13:19:45;20.73;;;9.35;;
49962;SDS011;36180;57.678;11.910;2023-12-04T13:22:12;24.63;;;10.23;;
49962;SDS011;36180;57.678;11.910;2023-12-04T13:24:39;19.85;;;8.77;;
49962;SDS011;36180;57.678;11.910;2023-12-04T13:27:07;18.33;;;9.25;;
49962;SDS011;36180;57.678;11.910;2023-12-04T13:29:34;17.98;;;9.27;;
49962;SDS011;36180;57.678;11.910;2023-12-04T13:32:03;19.35;;;9.43;;
49962;SDS011;36180;57.678;11.910;2023-12-04T13:34:30;24.15;;;9.80;;
49962;SDS011;36180;57.678;11.910;2023-12-04T13:36:57;26.88;;;9.77;;
49962;SDS011;36180;57.678;11.910;2023-12-04T13:39:24;22.35;;;9.88;;
49962;SDS011;36180;57.678;11.910;2023-12-04T13:42:12;21.80;;;9.73;;
49962;SDS011;36180;57.678;11.910;2023-12-04T13:44:57;19.67;;;10.65;;
49962;SDS011;36180;57.678;11.910;2023-12-04T13:47:25;23.10;;;10.35;;
49962;SDS011;36180;57.678;11.910;2023-12-04T13:49:52;25.88;;;10.65;;
49962;SDS011;36180;57.678;11.910;2023-12-04T13:52:20;26.23;;;11.90;;
49962;SDS011;36180;57.678;11.910;2023-12-04T13:54:48;23.85;;;11.05;;
49962;SDS011;36180;57.678;11.910;2023-12-04T13:57:15;26.80;;;10.73;;
49962;SDS011;36180;57.678;11.910;2023-12-04T13:59:46;27.80;;;11.35;;
49962;SDS011;36180;57.678;11.910;2023-12-04T14:02:13;28.42;;;11.63;;
49962;SDS011;36180;57.678;11.910;2023-12-04T14:04:42;23.33;;;11.20;;
49962;SDS011;36180;57.678;11.910;2023-12-04T14:07:08;24.55;;;11.55;;
49962;SDS011;36180;57.678;11.910;2023-12-04T14:09:37;22.67;;;10.82;;
49962;SDS011;36180;57.678;11.910;2023-12-04T14:12:05;28.50;;;11.45;;
49962;SDS011;36180;57.678;11.910;2023-12-04T14:14:32;25.65;;;11.85;;
49962;SDS011;36180;57.678;11.910;2023-12-04T14:17:00;27.77;;;12.02;;
49962;SDS011;36180;57.678;11.910;2023-12-04T14:19:29;27.95;;;12.18;;
49962;SDS011;36180;57.678;11.910;2023-12-04T14:21:57;26.30;;;11.75;;
49962;SDS011;36180;57.678;11.910;2023-12-04T14:24:24;24.17;;;11.30;;
49962;SDS011;36180;57.678;11.910;2023-12-04T14:26:51;30.02;;;12.00;;
49962;SDS011;36180;57.678;11.910;2023-12-04T14:29:19;24.58;;;11.73;;
49962;SDS011;36180;57.678;11.910;2023-12-04T14:31:46;25.63;;;12.48;;
49962;SDS011;36180;57.678;11.910;2023-12-04T14:34:13;28.35;;;12.27;;